sensor_id;sensor_type;location;lat;lon;timestamp;P1;durP1;ratioP1;P2;durP2;ratioP2
8536;SDS011;4306;50.210;10.628;2023-02-18T00:00:27;7.95;;;5.72;;
8536;SDS011;4306;50.210;10.628;2023-02-18T00:02:55;8.38;;;5.82;;
8536;SDS011;4306;50.210;10.628;2023-02-18T00:05:22;7.63;;;5.45;;
8536;SDS011;4306;50.210;10.628;2023-02-18T00:07:49;7.53;;;5.55;;
8536;SDS011;4306;50.210;10.628;2023-02-18T00:10:16;7.28;;;5.28;;
8536;SDS011;4306;50.210;10.628;2023-02-18T00:12:43;11.43;;;6.93;;
8536;SDS011;4306;50.210;10.628;2023-02-18T00:15:10;9.65;;;6.93;;
8536;SDS011;4306;50.210;10.628;2023-02-18T00:17:37;6.95;;;5.45;;
8536;SDS011;4306;50.210;10.628;2023-02-18T00:20:06;8.63;;;6.10;;
8536;SDS011;4306;50.210;10.628;2023-02-18T00:22:34;7.18;;;5.50;;
8536;SDS011;4306;50.210;10.628;2023-02-18T00:25:00;8.98;;;6.10;;
8536;SDS011;4306;50.210;10.628;2023-02-18T00:27:27;8.00;;;5.63;;
8536;SDS011;4306;50.210;10.628;2023-02-18T00:29:54;8.10;;;6.15;;
8536;SDS011;4306;50.210;10.628;2023-02-18T00:32:21;6.65;;;5.53;;
8536;SDS011;4306;50.210;10.628;2023-02-18T00:34:48;8.93;;;5.55;;
8536;SDS011;4306;50.210;10.628;2023-02-18T00:37:16;9.85;;;5.88;;
8536;SDS011;4306;50.210;10.628;2023-02-18T00:39:43;7.88;;;5.40;;
8536;SDS011;4306;50.210;10.628;2023-02-18T00:42:09;7.00;;;5.40;;
8536;SDS011;4306;50.210;10.628;2023-02-18T00:44:37;8.95;;;6.72;;
8536;SDS011;4306;50.210;10.628;2023-02-18T00:47:04;9.40;;;7.35;;
8536;SDS011;4306;50.210;10.628;2023-02-18T00:49:31;7.47;;;6.38;;
8536;SDS011;4306;50.210;10.628;2023-02-18T00:51:57;7.18;;;5.00;;
8536;SDS011;4306;50.210;10.628;2023-02-18T00:54:26;7.90;;;4.95;;
8536;SDS011;4306;50.210;10.628;2023-02-18T00:56:53;9.32;;;6.82;;
8536;SDS011;4306;50.210;10.628;2023-02-18T00:59:19;6.32;;;4.57;;
8536;SDS011;4306;50.210;10.628;2023-02-18T01:01:46;8.20;;;5.53;;
8536;SDS011;4306;50.210;10.628;2023-02-18T01:04:13;7.15;;;5.32;;
8536;SDS011;4306;50.210;10.628;2023-02-18T01:06:40;8.00;;;5.20;;
8536;SDS011;4306;50.210;10.628;2023-02-18T01:09:07;6.13;;;4.95;;
8536;SDS011;4306;50.210;10.628;2023-02-18T01:11:35;7.10;;;5.35;;
8536;SDS011;4306;50.210;10.628;2023-02-18T01:14:02;6.55;;;5.30;;
8536;SDS011;4306;50.210;10.628;2023-02-18T01:16:29;8.02;;;6.40;;
8536;SDS011;4306;50.210;10.628;2023-02-18T01:18:56;7.63;;;5.60;;
8536;SDS011;4306;50.210;10.628;2023-02-18T01:21:22;7.47;;;5.07;;
8536;SDS011;4306;50.210;10.628;2023-02-18T01:23:49;7.18;;;5.65;;
8536;SDS011;4306;50.210;10.628;2023-02-18T01:26:16;7.05;;;4.95;;
8536;SDS011;4306;50.210;10.628;2023-02-18T01:28:44;7.28;;;5.07;;
8536;SDS011;4306;50.210;10.628;2023-02-18T01:31:11;9.95;;;5.78;;
8536;SDS011;4306;50.210;10.628;2023-02-18T01:33:39;6.82;;;4.88;;
8536;SDS011;4306;50.210;10.628;2023-02-18T01:36:06;8.05;;;5.57;;
8536;SDS011;4306;50.210;10.628;2023-02-18T01:38:34;7.22;;;4.97;;
8536;SDS011;4306;50.210;10.628;2023-02-18T01:41:01;7.30;;;5.20;;
8536;SDS011;4306;50.210;10.628;2023-02-18T01:43:28;7.47;;;5.28;;
8536;SDS011;4306;50.210;10.628;2023-02-18T01:46:03;6.82;;;5.32;;
8536;SDS011;4306;50.210;10.628;2023-02-18T01:48:49;7.70;;;5.47;;
8536;SDS011;4306;50.210;10.628;2023-02-18T01:51:19;7.63;;;4.88;;
8536;SDS011;4306;50.210;10.628;2023-02-18T01:53:50;7.30;;;5.10;;
8536;SDS011;4306;50.210;10.628;2023-02-18T01:56:22;6.93;;;5.05;;
8536;SDS011;4306;50.210;10.628;2023-02-18T01:58:52;7.65;;;5.57;;
8536;SDS011;4306;50.210;10.628;2023-02-18T02:01:23;7.47;;;5.95;;
8536;SDS011;4306;50.210;10.628;2023-02-18T02:03:51;6.72;;;5.15;;
8536;SDS011;4306;50.210;10.628;2023-02-18T02:06:19;6.78;;;5.25;;
8536;SDS011;4306;50.210;10.628;2023-02-18T02:08:48;7.50;;;5.70;;
8536;SDS011;4306;50.210;10.628;2023-02-18T02:11:20;8.18;;;6.43;;
8536;SDS011;4306;50.210;10.628;2023-02-18T02:13:58;9.07;;;5.72;;
8536;SDS011;4306;50.210;10.628;2023-02-18T02:16:41;7.43;;;5.68;;
8536;SDS011;4306;50.210;10.628;2023-02-18T02:19:24;8.13;;;5.35;;
8536;SDS011;4306;50.210;10.628;2023-02-18T02:22:29;6.85;;;4.70;;
8536;SDS011;4306;50.210;10.628;2023-02-18T02:25:20;7.20;;;4.20;;
8536;SDS011;4306;50.210;10.628;2023-02-18T02:28:18;7.53;;;4.53;;
8536;SDS011;4306;50.210;10.628;2023-02-18T02:31:14;6.55;;;4.43;;
8536;SDS011;4306;50.210;10.628;2023-02-18T02:37:12;6.10;;;3.92;;
8536;SDS011;4306;50.210;10.628;2023-02-18T02:39:46;5.43;;;4.07;;
8536;SDS011;4306;50.210;10.628;2023-02-18T02:42:24;5.28;;;3.78;;
8536;SDS011;4306;50.210;10.628;2023-02-18T02:45:01;6.20;;;3.50;;
8536;SDS011;4306;50.210;10.628;2023-02-18T02:47:35;8.18;;;3.97;;
8536;SDS011;4306;50.210;10.628;2023-02-18T02:50:12;6.82;;;3.67;;
8536;SDS011;4306;50.210;10.628;2023-02-18T02:52:46;5.65;;;3.90;;
8536;SDS011;4306;50.210;10.628;2023-02-18T02:55:16;6.22;;;3.78;;
8536;SDS011;4306;50.210;10.628;2023-02-18T02:57:44;5.97;;;3.60;;
8536;SDS011;4306;50.210;10.628;2023-02-18T03:00:13;4.82;;;3.38;;
8536;SDS011;4306;50.210;10.628;2023-02-18T03:02:50;4.38;;;3.28;;
8536;SDS011;4306;50.210;10.628;2023-02-18T03:05:49;4.93;;;3.30;;
8536;SDS011;4306;50.210;10.628;2023-02-18T03:08:31;5.38;;;3.75;;
8536;SDS011;4306;50.210;10.628;2023-02-18T03:11:06;5.63;;;3.53;;
8536;SDS011;4306;50.210;10.628;2023-02-18T03:13:39;5.78;;;3.72;;
8536;SDS011;4306;50.210;10.628;2023-02-18T03:16:20;7.00;;;3.72;;
8536;SDS011;4306;50.210;10.628;2023-02-18T03:18:54;4.97;;;3.42;;
8536;SDS011;4306;50.210;10.628;2023-02-18T03:21:28;4.70;;;3.30;;
8536;SDS011;4306;50.210;10.628;2023-02-18T03:23:57;4.88;;;3.20;;
8536;SDS011;4306;50.210;10.628;2023-02-18T03:26:28;5.93;;;3.60;;
8536;SDS011;4306;50.210;10.628;2023-02-18T03:28:57;4.82;;;3.60;;
8536;SDS011;4306;50.210;10.628;2023-02-18T03:31:28;5.93;;;4.32;;
8536;SDS011;4306;50.210;10.628;2023-02-18T03:33:58;7.20;;;4.50;;
8536;SDS011;4306;50.210;10.628;2023-02-18T03:36:29;4.68;;;3.67;;
8536;SDS011;4306;50.210;10.628;2023-02-18T03:38:59;5.18;;;3.75;;
8536;SDS011;4306;50.210;10.628;2023-02-18T03:41:29;5.05;;;3.60;;
8536;SDS011;4306;50.210;10.628;2023-02-18T03:43:58;4.95;;;3.60;;
8536;SDS011;4306;50.210;10.628;2023-02-18T03:46:26;5.22;;;3.70;;
8536;SDS011;4306;50.210;10.628;2023-02-18T03:48:53;6.30;;;4.25;;
8536;SDS011;4306;50.210;10.628;2023-02-18T03:51:21;5.55;;;3.90;;
8536;SDS011;4306;50.210;10.628;2023-02-18T03:53:49;5.35;;;3.83;;
8536;SDS011;4306;50.210;10.628;2023-02-18T03:56:16;6.68;;;4.00;;
8536;SDS011;4306;50.210;10.628;2023-02-18T03:58:43;5.82;;;3.58;;
8536;SDS011;4306;50.210;10.628;2023-02-18T04:01:10;5.82;;;4.05;;
8536;SDS011;4306;50.210;10.628;2023-02-18T04:03:37;4.75;;;3.55;;
8536;SDS011;4306;50.210;10.628;2023-02-18T04:06:04;5.35;;;3.60;;
8536;SDS011;4306;50.210;10.628;2023-02-18T04:08:31;7.43;;;3.90;;
8536;SDS011;4306;50.210;10.628;2023-02-18T04:10:59;5.03;;;3.42;;
8536;SDS011;4306;50.210;10.628;2023-02-18T04:13:26;4.50;;;3.40;;
8536;SDS011;4306;50.210;10.628;2023-02-18T04:15:53;5.35;;;3.78;;
8536;SDS011;4306;50.210;10.628;2023-02-18T04:18:20;4.65;;;3.20;;
8536;SDS011;4306;50.210;10.628;2023-02-18T04:20:47;4.47;;;3.20;;
8536;SDS011;4306;50.210;10.628;2023-02-18T04:23:14;5.90;;;3.17;;
8536;SDS011;4306;50.210;10.628;2023-02-18T04:25:41;4.82;;;2.90;;
8536;SDS011;4306;50.210;10.628;2023-02-18T04:28:09;4.82;;;3.28;;
8536;SDS011;4306;50.210;10.628;2023-02-18T04:30:39;4.22;;;2.88;;
8536;SDS011;4306;50.210;10.628;2023-02-18T04:33:06;4.18;;;2.83;;
8536;SDS011;4306;50.210;10.628;2023-02-18T04:35:32;4.68;;;2.60;;
8536;SDS011;4306;50.210;10.628;2023-02-18T04:38:00;4.22;;;2.90;;
8536;SDS011;4306;50.210;10.628;2023-02-18T04:40:27;3.28;;;2.25;;
8536;SDS011;4306;50.210;10.628;2023-02-18T04:42:54;4.10;;;2.80;;
8536;SDS011;4306;50.210;10.628;2023-02-18T04:45:23;4.10;;;2.83;;
8536;SDS011;4306;50.210;10.628;2023-02-18T04:47:50;3.85;;;2.40;;
8536;SDS011;4306;50.210;10.628;2023-02-18T04:50:17;4.93;;;2.50;;
8536;SDS011;4306;50.210;10.628;2023-02-18T04:52:45;3.80;;;2.45;;
8536;SDS011;4306;50.210;10.628;2023-02-18T04:55:12;2.95;;;1.95;;
8536;SDS011;4306;50.210;10.628;2023-02-18T04:57:39;2.95;;;1.80;;
8536;SDS011;4306;50.210;10.628;2023-02-18T05:00:08;3.33;;;1.90;;
8536;SDS011;4306;50.210;10.628;2023-02-18T05:02:39;3.67;;;2.40;;
8536;SDS011;4306;50.210;10.628;2023-02-18T05:05:06;3.20;;;2.10;;
8536;SDS011;4306;50.210;10.628;2023-02-18T05:07:34;4.10;;;2.33;;
8536;SDS011;4306;50.210;10.628;2023-02-18T05:10:01;2.78;;;1.77;;
8536;SDS011;4306;50.210;10.628;2023-02-18T05:12:28;5.30;;;2.40;;
8536;SDS011;4306;50.210;10.628;2023-02-18T05:14:55;2.67;;;1.90;;
8536;SDS011;4306;50.210;10.628;2023-02-18T05:17:21;3.72;;;2.03;;
8536;SDS011;4306;50.210;10.628;2023-02-18T05:19:50;3.20;;;2.05;;
8536;SDS011;4306;50.210;10.628;2023-02-18T05:22:16;4.40;;;2.53;;
8536;SDS011;4306;50.210;10.628;2023-02-18T05:24:43;4.90;;;2.20;;
8536;SDS011;4306;50.210;10.628;2023-02-18T05:27:10;3.30;;;2.10;;
8536;SDS011;4306;50.210;10.628;2023-02-18T05:29:37;2.92;;;1.92;;
8536;SDS011;4306;50.210;10.628;2023-02-18T05:32:04;4.82;;;2.30;;
8536;SDS011;4306;50.210;10.628;2023-02-18T05:34:31;3.90;;;2.45;;
8536;SDS011;4306;50.210;10.628;2023-02-18T05:36:59;3.53;;;2.08;;
8536;SDS011;4306;50.210;10.628;2023-02-18T05:39:26;3.63;;;2.45;;
8536;SDS011;4306;50.210;10.628;2023-02-18T05:41:53;3.63;;;2.20;;
8536;SDS011;4306;50.210;10.628;2023-02-18T05:44:19;5.82;;;2.50;;
8536;SDS011;4306;50.210;10.628;2023-02-18T05:46:55;3.10;;;1.92;;
8536;SDS011;4306;50.210;10.628;2023-02-18T05:49:23;3.15;;;1.88;;
8536;SDS011;4306;50.210;10.628;2023-02-18T05:51:49;3.35;;;1.85;;
8536;SDS011;4306;50.210;10.628;2023-02-18T05:54:18;3.85;;;1.80;;
8536;SDS011;4306;50.210;10.628;2023-02-18T05:56:45;5.13;;;1.60;;
8536;SDS011;4306;50.210;10.628;2023-02-18T05:59:12;3.88;;;1.88;;
8536;SDS011;4306;50.210;10.628;2023-02-18T06:01:39;3.22;;;1.80;;
8536;SDS011;4306;50.210;10.628;2023-02-18T06:04:06;3.22;;;1.85;;
8536;SDS011;4306;50.210;10.628;2023-02-18T06:06:33;2.83;;;1.73;;
8536;SDS011;4306;50.210;10.628;2023-02-18T06:09:00;2.72;;;1.60;;
8536;SDS011;4306;50.210;10.628;2023-02-18T06:11:30;3.28;;;1.50;;
8536;SDS011;4306;50.210;10.628;2023-02-18T06:13:57;2.13;;;1.40;;
8536;SDS011;4306;50.210;10.628;2023-02-18T06:16:24;2.17;;;1.35;;
8536;SDS011;4306;50.210;10.628;2023-02-18T06:18:51;4.72;;;1.35;;
8536;SDS011;4306;50.210;10.628;2023-02-18T06:21:18;1.85;;;1.20;;
8536;SDS011;4306;50.210;10.628;2023-02-18T06:23:48;2.25;;;1.20;;
8536;SDS011;4306;50.210;10.628;2023-02-18T06:26:15;3.20;;;1.50;;
8536;SDS011;4306;50.210;10.628;2023-02-18T06:28:43;2.47;;;1.20;;
8536;SDS011;4306;50.210;10.628;2023-02-18T06:31:10;2.20;;;1.00;;
8536;SDS011;4306;50.210;10.628;2023-02-18T06:33:37;1.98;;;1.08;;
8536;SDS011;4306;50.210;10.628;2023-02-18T06:36:05;2.17;;;1.15;;
8536;SDS011;4306;50.210;10.628;2023-02-18T06:38:35;2.22;;;1.17;;
8536;SDS011;4306;50.210;10.628;2023-02-18T06:41:03;2.20;;;1.20;;
8536;SDS011;4306;50.210;10.628;2023-02-18T06:43:30;2.13;;;1.23;;
8536;SDS011;4306;50.210;10.628;2023-02-18T06:45:59;2.35;;;1.38;;
8536;SDS011;4306;50.210;10.628;2023-02-18T06:48:26;2.55;;;1.10;;
8536;SDS011;4306;50.210;10.628;2023-02-18T06:50:52;3.67;;;1.38;;
8536;SDS011;4306;50.210;10.628;2023-02-18T06:53:19;2.38;;;1.30;;
8536;SDS011;4306;50.210;10.628;2023-02-18T06:55:49;2.65;;;1.40;;
8536;SDS011;4306;50.210;10.628;2023-02-18T06:58:21;2.53;;;1.40;;
8536;SDS011;4306;50.210;10.628;2023-02-18T07:00:48;3.78;;;1.30;;
8536;SDS011;4306;50.210;10.628;2023-02-18T07:03:17;3.00;;;1.60;;
8536;SDS011;4306;50.210;10.628;2023-02-18T07:05:43;2.58;;;1.50;;
8536;SDS011;4306;50.210;10.628;2023-02-18T07:08:10;2.60;;;1.45;;
8536;SDS011;4306;50.210;10.628;2023-02-18T07:10:37;4.38;;;1.90;;
8536;SDS011;4306;50.210;10.628;2023-02-18T07:13:04;3.10;;;1.90;;
8536;SDS011;4306;50.210;10.628;2023-02-18T07:15:31;2.50;;;1.70;;
8536;SDS011;4306;50.210;10.628;2023-02-18T07:17:58;4.57;;;2.28;;
8536;SDS011;4306;50.210;10.628;2023-02-18T07:20:27;4.30;;;2.10;;
8536;SDS011;4306;50.210;10.628;2023-02-18T07:22:54;4.55;;;2.22;;
8536;SDS011;4306;50.210;10.628;2023-02-18T07:25:21;3.85;;;2.03;;
8536;SDS011;4306;50.210;10.628;2023-02-18T07:27:48;3.10;;;2.00;;
8536;SDS011;4306;50.210;10.628;2023-02-18T07:30:15;3.90;;;2.03;;
8536;SDS011;4306;50.210;10.628;2023-02-18T07:32:44;3.28;;;2.15;;
8536;SDS011;4306;50.210;10.628;2023-02-18T07:35:12;4.10;;;2.40;;
8536;SDS011;4306;50.210;10.628;2023-02-18T07:37:45;3.20;;;2.00;;
8536;SDS011;4306;50.210;10.628;2023-02-18T07:40:16;4.03;;;2.50;;
8536;SDS011;4306;50.210;10.628;2023-02-18T07:42:47;4.90;;;2.20;;
8536;SDS011;4306;50.210;10.628;2023-02-18T07:45:15;4.28;;;2.75;;
8536;SDS011;4306;50.210;10.628;2023-02-18T07:47:45;4.15;;;2.50;;
8536;SDS011;4306;50.210;10.628;2023-02-18T07:50:12;4.07;;;2.55;;
8536;SDS011;4306;50.210;10.628;2023-02-18T07:52:40;3.72;;;2.60;;
8536;SDS011;4306;50.210;10.628;2023-02-18T07:55:09;6.38;;;4.50;;
8536;SDS011;4306;50.210;10.628;2023-02-18T07:57:37;5.00;;;3.63;;
8536;SDS011;4306;50.210;10.628;2023-02-18T08:00:21;6.20;;;4.63;;
8536;SDS011;4306;50.210;10.628;2023-02-18T08:02:51;6.25;;;4.50;;
8536;SDS011;4306;50.210;10.628;2023-02-18T08:05:18;7.20;;;5.25;;
8536;SDS011;4306;50.210;10.628;2023-02-18T08:07:46;6.50;;;5.03;;
8536;SDS011;4306;50.210;10.628;2023-02-18T08:10:19;6.95;;;4.95;;
8536;SDS011;4306;50.210;10.628;2023-02-18T08:12:46;7.07;;;5.10;;
8536;SDS011;4306;50.210;10.628;2023-02-18T08:15:13;6.95;;;5.03;;
8536;SDS011;4306;50.210;10.628;2023-02-18T08:17:41;8.07;;;5.57;;
8536;SDS011;4306;50.210;10.628;2023-02-18T08:20:09;8.75;;;5.30;;
8536;SDS011;4306;50.210;10.628;2023-02-18T08:22:37;7.97;;;5.68;;
8536;SDS011;4306;50.210;10.628;2023-02-18T08:25:05;8.57;;;5.72;;
8536;SDS011;4306;50.210;10.628;2023-02-18T08:27:34;8.93;;;6.15;;
8536;SDS011;4306;50.210;10.628;2023-02-18T08:30:01;6.97;;;5.50;;
8536;SDS011;4306;50.210;10.628;2023-02-18T08:32:29;8.98;;;5.38;;
8536;SDS011;4306;50.210;10.628;2023-02-18T08:34:57;7.82;;;5.75;;
8536;SDS011;4306;50.210;10.628;2023-02-18T08:37:25;8.30;;;6.20;;
8536;SDS011;4306;50.210;10.628;2023-02-18T08:39:53;8.27;;;5.35;;
8536;SDS011;4306;50.210;10.628;2023-02-18T08:42:20;8.98;;;5.95;;
8536;SDS011;4306;50.210;10.628;2023-02-18T08:44:50;8.02;;;5.85;;
8536;SDS011;4306;50.210;10.628;2023-02-18T08:47:17;7.18;;;5.50;;
8536;SDS011;4306;50.210;10.628;2023-02-18T08:49:44;7.82;;;6.05;;
8536;SDS011;4306;50.210;10.628;2023-02-18T08:52:14;10.93;;;7.80;;
8536;SDS011;4306;50.210;10.628;2023-02-18T08:54:42;8.35;;;6.00;;
8536;SDS011;4306;50.210;10.628;2023-02-18T08:57:10;9.43;;;6.53;;
8536;SDS011;4306;50.210;10.628;2023-02-18T08:59:37;8.55;;;6.07;;
8536;SDS011;4306;50.210;10.628;2023-02-18T09:02:06;7.38;;;5.35;;
8536;SDS011;4306;50.210;10.628;2023-02-18T09:04:33;7.53;;;5.32;;
8536;SDS011;4306;50.210;10.628;2023-02-18T09:07:03;7.63;;;5.85;;
8536;SDS011;4306;50.210;10.628;2023-02-18T09:09:31;6.43;;;4.70;;
8536;SDS011;4306;50.210;10.628;2023-02-18T09:12:01;6.60;;;4.90;;
8536;SDS011;4306;50.210;10.628;2023-02-18T09:14:29;6.82;;;4.93;;
8536;SDS011;4306;50.210;10.628;2023-02-18T09:16:59;5.93;;;4.53;;
8536;SDS011;4306;50.210;10.628;2023-02-18T09:19:30;6.32;;;4.43;;
8536;SDS011;4306;50.210;10.628;2023-02-18T09:21:58;6.78;;;4.78;;
8536;SDS011;4306;50.210;10.628;2023-02-18T09:24:28;6.00;;;4.22;;
8536;SDS011;4306;50.210;10.628;2023-02-18T09:26:56;7.00;;;4.55;;
8536;SDS011;4306;50.210;10.628;2023-02-18T09:29:23;6.43;;;4.35;;
8536;SDS011;4306;50.210;10.628;2023-02-18T09:31:51;6.15;;;4.30;;
8536;SDS011;4306;50.210;10.628;2023-02-18T09:34:18;5.55;;;4.13;;
8536;SDS011;4306;50.210;10.628;2023-02-18T09:36:47;7.10;;;4.95;;
8536;SDS011;4306;50.210;10.628;2023-02-18T09:39:15;6.80;;;4.38;;
8536;SDS011;4306;50.210;10.628;2023-02-18T09:41:44;5.60;;;3.90;;
8536;SDS011;4306;50.210;10.628;2023-02-18T09:44:15;9.20;;;4.65;;
8536;SDS011;4306;50.210;10.628;2023-02-18T09:46:48;5.68;;;4.53;;
8536;SDS011;4306;50.210;10.628;2023-02-18T09:49:19;5.68;;;4.20;;
8536;SDS011;4306;50.210;10.628;2023-02-18T09:51:50;5.28;;;4.10;;
8536;SDS011;4306;50.210;10.628;2023-02-18T09:54:18;5.70;;;3.53;;
8536;SDS011;4306;50.210;10.628;2023-02-18T09:56:48;5.18;;;3.97;;
8536;SDS011;4306;50.210;10.628;2023-02-18T09:59:20;6.78;;;4.20;;
8536;SDS011;4306;50.210;10.628;2023-02-18T10:01:51;6.28;;;4.40;;
8536;SDS011;4306;50.210;10.628;2023-02-18T10:04:21;7.72;;;4.30;;
8536;SDS011;4306;50.210;10.628;2023-02-18T10:06:56;5.03;;;4.00;;
8536;SDS011;4306;50.210;10.628;2023-02-18T10:09:24;6.93;;;3.95;;
8536;SDS011;4306;50.210;10.628;2023-02-18T10:11:57;4.88;;;3.95;;
8536;SDS011;4306;50.210;10.628;2023-02-18T10:14:30;6.78;;;4.00;;
8536;SDS011;4306;50.210;10.628;2023-02-18T10:16:57;5.97;;;4.00;;
8536;SDS011;4306;50.210;10.628;2023-02-18T10:19:27;4.82;;;3.72;;
8536;SDS011;4306;50.210;10.628;2023-02-18T10:21:59;6.15;;;4.28;;
8536;SDS011;4306;50.210;10.628;2023-02-18T10:24:28;4.78;;;3.67;;
8536;SDS011;4306;50.210;10.628;2023-02-18T10:26:57;5.10;;;3.47;;
8536;SDS011;4306;50.210;10.628;2023-02-18T10:29:25;7.45;;;3.65;;
8536;SDS011;4306;50.210;10.628;2023-02-18T10:31:54;4.90;;;3.60;;
8536;SDS011;4306;50.210;10.628;2023-02-18T10:34:29;4.55;;;3.33;;
8536;SDS011;4306;50.210;10.628;2023-02-18T10:37:10;5.20;;;3.55;;
8536;SDS011;4306;50.210;10.628;2023-02-18T10:39:51;5.07;;;3.45;;
8536;SDS011;4306;50.210;10.628;2023-02-18T10:42:29;5.50;;;3.58;;
8536;SDS011;4306;50.210;10.628;2023-02-18T10:45:04;5.35;;;3.25;;
8536;SDS011;4306;50.210;10.628;2023-02-18T10:47:41;4.53;;;3.33;;
8536;SDS011;4306;50.210;10.628;2023-02-18T10:50:20;4.78;;;3.53;;
8536;SDS011;4306;50.210;10.628;2023-02-18T10:52:55;4.25;;;3.30;;
8536;SDS011;4306;50.210;10.628;2023-02-18T10:55:33;4.78;;;3.28;;
8536;SDS011;4306;50.210;10.628;2023-02-18T10:58:01;3.90;;;2.88;;
8536;SDS011;4306;50.210;10.628;2023-02-18T11:00:32;4.30;;;2.47;;
8536;SDS011;4306;50.210;10.628;2023-02-18T11:03:09;5.38;;;2.92;;
8536;SDS011;4306;50.210;10.628;2023-02-18T11:05:40;3.38;;;2.28;;
8536;SDS011;4306;50.210;10.628;2023-02-18T11:08:10;3.13;;;1.80;;
8536;SDS011;4306;50.210;10.628;2023-02-18T11:10:42;3.65;;;2.33;;
8536;SDS011;4306;50.210;10.628;2023-02-18T11:13:11;4.50;;;2.65;;
8536;SDS011;4306;50.210;10.628;2023-02-18T11:15:52;3.72;;;2.25;;
8536;SDS011;4306;50.210;10.628;2023-02-18T11:18:27;3.55;;;2.10;;
8536;SDS011;4306;50.210;10.628;2023-02-18T11:21:02;7.55;;;2.33;;
8536;SDS011;4306;50.210;10.628;2023-02-18T11:23:32;4.07;;;2.38;;
8536;SDS011;4306;50.210;10.628;2023-02-18T11:26:11;3.83;;;2.58;;
8536;SDS011;4306;50.210;10.628;2023-02-18T11:28:41;3.80;;;2.33;;
8536;SDS011;4306;50.210;10.628;2023-02-18T11:31:15;3.92;;;2.13;;
8536;SDS011;4306;50.210;10.628;2023-02-18T11:33:47;3.40;;;2.08;;
8536;SDS011;4306;50.210;10.628;2023-02-18T11:36:17;3.60;;;1.73;;
8536;SDS011;4306;50.210;10.628;2023-02-18T11:38:50;2.55;;;1.70;;
8536;SDS011;4306;50.210;10.628;2023-02-18T11:41:21;4.22;;;2.20;;
8536;SDS011;4306;50.210;10.628;2023-02-18T11:43:56;3.47;;;1.70;;
8536;SDS011;4306;50.210;10.628;2023-02-18T11:46:24;2.38;;;1.17;;
8536;SDS011;4306;50.210;10.628;2023-02-18T11:48:53;2.60;;;1.58;;
8536;SDS011;4306;50.210;10.628;2023-02-18T11:51:22;4.32;;;1.77;;
8536;SDS011;4306;50.210;10.628;2023-02-18T11:53:59;2.35;;;1.40;;
8536;SDS011;4306;50.210;10.628;2023-02-18T11:56:28;3.47;;;1.67;;
8536;SDS011;4306;50.210;10.628;2023-02-18T11:58:57;2.80;;;1.27;;
8536;SDS011;4306;50.210;10.628;2023-02-18T12:04:12;1.75;;;1.20;;
8536;SDS011;4306;50.210;10.628;2023-02-18T12:06:44;1.67;;;1.20;;
8536;SDS011;4306;50.210;10.628;2023-02-18T12:09:19;2.45;;;1.10;;
8536;SDS011;4306;50.210;10.628;2023-02-18T12:11:50;5.20;;;1.08;;
8536;SDS011;4306;50.210;10.628;2023-02-18T12:14:19;1.60;;;1.08;;
8536;SDS011;4306;50.210;10.628;2023-02-18T12:16:56;2.03;;;1.20;;
8536;SDS011;4306;50.210;10.628;2023-02-18T12:19:43;2.00;;;1.05;;
8536;SDS011;4306;50.210;10.628;2023-02-18T12:22:26;4.35;;;1.17;;
8536;SDS011;4306;50.210;10.628;2023-02-18T12:25:12;3.17;;;1.30;;
8536;SDS011;4306;50.210;10.628;2023-02-18T12:27:53;4.60;;;2.35;;
8536;SDS011;4306;50.210;10.628;2023-02-18T12:33:25;2.47;;;1.50;;
8536;SDS011;4306;50.210;10.628;2023-02-18T12:36:02;1.80;;;1.15;;
8536;SDS011;4306;50.210;10.628;2023-02-18T12:41:51;4.78;;;2.50;;
8536;SDS011;4306;50.210;10.628;2023-02-18T12:44:34;4.32;;;2.10;;
8536;SDS011;4306;50.210;10.628;2023-02-18T12:47:24;3.30;;;1.60;;
8536;SDS011;4306;50.210;10.628;2023-02-18T12:52:53;2.72;;;1.58;;
8536;SDS011;4306;50.210;10.628;2023-02-18T12:55:54;7.72;;;3.95;;
8536;SDS011;4306;50.210;10.628;2023-02-18T12:58:35;2.58;;;1.33;;
8536;SDS011;4306;50.210;10.628;2023-02-18T13:01:13;4.97;;;2.47;;
8536;SDS011;4306;50.210;10.628;2023-02-18T13:03:53;5.18;;;1.92;;
8536;SDS011;4306;50.210;10.628;2023-02-18T13:06:46;1.80;;;0.98;;
8536;SDS011;4306;50.210;10.628;2023-02-18T13:09:25;2.25;;;1.30;;
8536;SDS011;4306;50.210;10.628;2023-02-18T13:12:02;3.20;;;1.30;;
8536;SDS011;4306;50.210;10.628;2023-02-18T13:14:35;1.33;;;0.90;;
8536;SDS011;4306;50.210;10.628;2023-02-18T13:17:10;2.05;;;0.88;;
8536;SDS011;4306;50.210;10.628;2023-02-18T13:19:41;2.22;;;1.00;;
8536;SDS011;4306;50.210;10.628;2023-02-18T13:22:14;1.70;;;0.90;;
8536;SDS011;4306;50.210;10.628;2023-02-18T13:24:43;1.42;;;1.00;;
8536;SDS011;4306;50.210;10.628;2023-02-18T13:27:13;2.58;;;1.10;;
8536;SDS011;4306;50.210;10.628;2023-02-18T13:29:50;2.30;;;1.13;;
8536;SDS011;4306;50.210;10.628;2023-02-18T13:32:24;1.77;;;0.93;;
8536;SDS011;4306;50.210;10.628;2023-02-18T13:34:56;1.27;;;0.90;;
8536;SDS011;4306;50.210;10.628;2023-02-18T13:37:31;2.33;;;1.00;;
8536;SDS011;4306;50.210;10.628;2023-02-18T13:40:07;1.70;;;1.00;;
8536;SDS011;4306;50.210;10.628;2023-02-18T13:42:44;4.28;;;1.55;;
8536;SDS011;4306;50.210;10.628;2023-02-18T13:48:00;2.95;;;1.17;;
8536;SDS011;4306;50.210;10.628;2023-02-18T13:50:31;2.30;;;1.10;;
8536;SDS011;4306;50.210;10.628;2023-02-18T13:53:13;3.17;;;1.42;;
8536;SDS011;4306;50.210;10.628;2023-02-18T13:55:53;1.83;;;0.90;;
8536;SDS011;4306;50.210;10.628;2023-02-18T13:58:29;2.38;;;1.17;;
8536;SDS011;4306;50.210;10.628;2023-02-18T14:01:12;3.55;;;1.33;;
8536;SDS011;4306;50.210;10.628;2023-02-18T14:06:28;2.75;;;1.42;;
8536;SDS011;4306;50.210;10.628;2023-02-18T14:09:33;2.70;;;1.10;;
8536;SDS011;4306;50.210;10.628;2023-02-18T14:12:15;2.50;;;1.20;;
8536;SDS011;4306;50.210;10.628;2023-02-18T14:14:50;2.33;;;1.00;;
8536;SDS011;4306;50.210;10.628;2023-02-18T14:23:10;2.38;;;1.25;;
8536;SDS011;4306;50.210;10.628;2023-02-18T14:26:03;2.60;;;1.60;;
8536;SDS011;4306;50.210;10.628;2023-02-18T14:28:37;2.08;;;1.13;;
8536;SDS011;4306;50.210;10.628;2023-02-18T14:31:18;2.15;;;0.95;;
8536;SDS011;4306;50.210;10.628;2023-02-18T14:37:27;4.50;;;2.15;;
8536;SDS011;4306;50.210;10.628;2023-02-18T14:40:21;2.83;;;1.17;;
8536;SDS011;4306;50.210;10.628;2023-02-18T14:43:05;4.20;;;2.55;;
8536;SDS011;4306;50.210;10.628;2023-02-18T14:46:02;3.00;;;2.03;;
8536;SDS011;4306;50.210;10.628;2023-02-18T14:48:40;4.88;;;3.10;;
8536;SDS011;4306;50.210;10.628;2023-02-18T14:51:20;4.47;;;1.52;;
8536;SDS011;4306;50.210;10.628;2023-02-18T14:53:50;2.25;;;1.30;;
8536;SDS011;4306;50.210;10.628;2023-02-18T14:56:19;3.50;;;1.83;;
8536;SDS011;4306;50.210;10.628;2023-02-18T14:58:48;2.08;;;1.30;;
8536;SDS011;4306;50.210;10.628;2023-02-18T15:01:25;2.00;;;1.20;;
8536;SDS011;4306;50.210;10.628;2023-02-18T15:03:55;3.78;;;2.00;;
8536;SDS011;4306;50.210;10.628;2023-02-18T15:06:27;2.08;;;1.25;;
8536;SDS011;4306;50.210;10.628;2023-02-18T15:08:57;3.45;;;1.10;;
8536;SDS011;4306;50.210;10.628;2023-02-18T15:11:27;2.63;;;1.38;;
8536;SDS011;4306;50.210;10.628;2023-02-18T15:14:02;3.38;;;1.30;;
8536;SDS011;4306;50.210;10.628;2023-02-18T15:16:34;3.17;;;1.40;;
8536;SDS011;4306;50.210;10.628;2023-02-18T15:19:01;3.03;;;1.10;;
8536;SDS011;4306;50.210;10.628;2023-02-18T15:21:32;1.98;;;1.20;;
8536;SDS011;4306;50.210;10.628;2023-02-18T15:24:04;2.88;;;1.30;;
8536;SDS011;4306;50.210;10.628;2023-02-18T15:26:33;4.95;;;1.33;;
8536;SDS011;4306;50.210;10.628;2023-02-18T15:29:03;3.63;;;1.42;;
8536;SDS011;4306;50.210;10.628;2023-02-18T15:31:34;3.90;;;1.40;;
8536;SDS011;4306;50.210;10.628;2023-02-18T15:34:08;2.55;;;1.25;;
8536;SDS011;4306;50.210;10.628;2023-02-18T15:37:01;2.28;;;1.10;;
8536;SDS011;4306;50.210;10.628;2023-02-18T15:39:29;4.07;;;1.77;;
8536;SDS011;4306;50.210;10.628;2023-02-18T15:41:58;4.10;;;1.75;;
8536;SDS011;4306;50.210;10.628;2023-02-18T15:44:28;2.15;;;1.23;;
8536;SDS011;4306;50.210;10.628;2023-02-18T15:46:58;2.13;;;1.20;;
8536;SDS011;4306;50.210;10.628;2023-02-18T15:49:26;2.72;;;1.02;;
8536;SDS011;4306;50.210;10.628;2023-02-18T15:51:55;1.50;;;1.00;;
8536;SDS011;4306;50.210;10.628;2023-02-18T15:54:27;3.78;;;1.30;;